Pilot Magazine UKGA

About You

Log In Register UKGA membership

Flight planning

Flight planning New flightplan NOTAM map LARS map & NOTAMs Danger area, mil. & TRA activations Weather map GPS route download Find waypoints Your waypoints New waypoint

Forums

Forums Currently discussing "UKGA Weekly: News & classified bulletin"

History

Newtownards weather

Other items

Articles Events Links News Surveys Tips Other users Feedback UKGA membership About UKGA

Newtownards weather

(Weather from Belfast City)

NOT FOR OPERATIONAL USE

TAF

TAF EGAC 061659Z 0618/0622 18008KT 9999 SCT020 BKN030= TAF EGJB 061655Z 0618/0703 08009KT CAVOK

Previous TAFs

Log in to see Previous TAFs.

METAR

EGAC 062250Z AUTO 21011KT 9999 NCD 08/04 Q1034
Our last available update is from 06 February, 22:50 UTC. The data for this report was generated by an automatic station. There is a South-westerly wind of 11 knots . Current visibility is 10 km or more. The temperature is 8°C. The dewpoint is 4°C. The QNH is 1034mb.

Previous METARs

Log in to see previous METARs.

Contribute to UKGA:

Do you have more up-to-date information about Newtownards?

Newtownards photos

Do you have any photos taken at or near Newtownards?
Why not share them with other UKGA users?
19 Mar 11
8 Jun 06

Register with UKGA

Registration is quick and easy, and FREE!

Registered users received the following benefits:

  • Remembers "Favourites" Aerodromes
  • Automatic email of new Notams (if desired)
  • Automatic email of relevant events
  • Log Book
  • ... and more!

Click here to register NOW

About You

Log In Register UKGA membership

Airfields

Interactive airfield map Search by name Search by postcode Search by location Fuel prices Pilot reviews Latest
(No favourites selected)

Flight planning

Flight planning New flightplan NOTAM map LARS map & NOTAMs Danger area, mil. & TRA activations Weather map GPS route download Find waypoints Your waypoints New waypoint

Forums

Forums Currently discussing "UKGA Weekly: News & classified bulletin"

History

Newtownards weather

Other items

Articles Events Links News Surveys Tips Other users Feedback UKGA membership About UKGA